Arklow Raider — EIXS — position and weather

sailwx.info

Track history (hours):
 
Tides and Currents Weather Stations Pressure Air Temp Water Temp Dewpoint Dewpoint Depression Visibility Wind Speed Wind Dir Waves Ship Positions

Arklow Raider

Last reported at 2016-Oct-01 04:33 UTC. Time now 2016-Oct-01 20:45 UTC.
Position N 51°27' W 009°57'.

Length 90 m; draft 4 m.

Type: Ship. MMSI: 250001268.

Date/timePositionNaut miles runAvg speedWind from/ knotsBaromVisibWave heightAir tempDewpointWater temp
2016-Oct-01 04:33N 51°27' W 009°57'10 9.8
2016-Oct-01 03:33N 51°23' W 009°42'3110.4
2016-Oct-01 00:33N 51°23' W 008°52'2612.4
2016-Sep-30 22:29N 51°26' W 008°11'  
2016-Sep-28 08:28N 51°18' W 007°59'49 9.9
2016-Sep-28 03:33N 51°16' W 009°17'1010.3
2016-Sep-28 02:33N 51°15' W 009°34'1010.0
2016-Sep-28 01:33N 51°21' W 009°47'20 9.8
2016-Sep-27 23:33N 51°32' W 010°13'  
2016-Sep-24 03:34N 51°23' W 009°48'9 9.3
2016-Sep-24 02:34N 51°21' W 009°33'7 7.0
2016-Sep-24 01:34N 51°23' W 009°23'7 6.8
2016-Sep-24 00:33N 51°26' W 009°12'32 6.4
2016-Sep-23 19:33N 51°39' W 008°25'14 6.8
2016-Sep-23 17:33N 51°51' W 008°16'7 6.7
2016-Sep-23 16:33N 51°54' W 008°26'1 0.7
2016-Sep-23 15:17N 51°54' W 008°28'0 0.0
2016-Sep-23 13:32N 51°54' W 008°28'0 0.0
2016-Sep-23 09:05N 51°54' W 008°27'0 0.0
2016-Sep-23 00:23N 51°54' W 008°27'0 0.0
2016-Sep-22 23:23N 51°54' W 008°27'0 0.0
2016-Sep-22 20:29N 51°54' W 008°27'0 0.0
2016-Sep-22 04:33N 51°54' W 008°28'0 0.0
2016-Sep-22 03:33N 51°54' W 008°28'0 0.0
2016-Sep-22 00:33N 51°54' W 008°28'0 0.0
2016-Sep-21 23:32N 51°54' W 008°28'0 0.0
2016-Sep-21 22:33N 51°54' W 008°28'9 3.2
2016-Sep-21 19:33N 51°48' W 008°16'26 8.8
2016-Sep-21 16:33N 51°27' W 007°49'  
Track history (hours):
 
Tides and Currents Weather Stations Pressure Air Temp Water Temp Dewpoint Dewpoint Depression Visibility Wind Speed Wind Dir Waves Ship Positions

Arklow Raider

Last reported at 2016-Oct-01 04:33 UTC. Time now 2016-Oct-01 20:45 UTC.
Position N 51°27' W 009°57'.

Length 90 m; draft 4 m.

Type: Ship. MMSI: 250001268.

Date/timePositionNaut miles runAvg speedWind from/ knotsBaromVisibWave heightAir tempDewpointWater temp
2016-Oct-01 04:33N 51°27' W 009°57'10 9.8
2016-Oct-01 03:33N 51°23' W 009°42'3110.4
2016-Oct-01 00:33N 51°23' W 008°52'2612.4
2016-Sep-30 22:29N 51°26' W 008°11'  
2016-Sep-28 08:28N 51°18' W 007°59'49 9.9
2016-Sep-28 03:33N 51°16' W 009°17'1010.3
2016-Sep-28 02:33N 51°15' W 009°34'1010.0
2016-Sep-28 01:33N 51°21' W 009°47'20 9.8
2016-Sep-27 23:33N 51°32' W 010°13'  
2016-Sep-24 03:34N 51°23' W 009°48'9 9.3
2016-Sep-24 02:34N 51°21' W 009°33'7 7.0
2016-Sep-24 01:34N 51°23' W 009°23'7 6.8
2016-Sep-24 00:33N 51°26' W 009°12'32 6.4
2016-Sep-23 19:33N 51°39' W 008°25'14 6.8
2016-Sep-23 17:33N 51°51' W 008°16'7 6.7
2016-Sep-23 16:33N 51°54' W 008°26'1 0.7
2016-Sep-23 15:17N 51°54' W 008°28'0 0.0
2016-Sep-23 13:32N 51°54' W 008°28'0 0.0
2016-Sep-23 09:05N 51°54' W 008°27'0 0.0
2016-Sep-23 00:23N 51°54' W 008°27'0 0.0
2016-Sep-22 23:23N 51°54' W 008°27'0 0.0
2016-Sep-22 20:29N 51°54' W 008°27'0 0.0
2016-Sep-22 04:33N 51°54' W 008°28'0 0.0
2016-Sep-22 03:33N 51°54' W 008°28'0 0.0
2016-Sep-22 00:33N 51°54' W 008°28'0 0.0
2016-Sep-21 23:32N 51°54' W 008°28'0 0.0
2016-Sep-21 22:33N 51°54' W 008°28'9 3.2
2016-Sep-21 19:33N 51°48' W 008°16'26 8.8
2016-Sep-21 16:33N 51°27' W 007°49'  

Dump ship's entire track history